Kezdőlap
METAR-TAF:

METAR-TAF

Repülőterek :

Guilin, Kína

földrajzi szélesség: 25-20N, földrajzi hosszúság: 110-18E, magasság: 166 m

Jelenlegi meteorológiai megfigyelések

A jelentés 1 órával és 8 perccel ezelõtt készült, 20:00 UTC
Északkeleti szél 6 kt
Hőmérséklet 10°C
Páratartalom 76%
Légköri nyomás 1025 hPa
Látótávolság 10 km, vagy több
felhőtlen 1500 m magasságban, és nincs gomolyfelhõ

METAR: ZGKL 182000Z 04003MPS CAVOK 10/06 Q1025 NOSIG

Idő: 05:08 (21:08 UTC)

Előrejelzés

A jelentés 5 órával és 59 perccel ezelõtt készült, 15:09 UTC
Az előrejelzés 18-én 18 óra UTC és 19-én 18 óra UTC között érvényes
Északkeleti szél 8 kt
Látótávolság: 6000 m
Szórványos felhőzet 3000 lábon
Borult 4000 lábon

TAF: ZGKL 181509Z 1818/1918 05004MPS 6000 SCT030 OVC040 TX13/1907Z TN08/1822Z

Meteorológiai megfigyelések és előrejelzések több, mint 4000 repülőtéren (METAR és TAF jelentéseket).

A térképen piros és sárga pontok jelzik az elérhető meteorológiai állomásokat.

Mozgassa az egeret a pont fölött, hogy megjelenjen az állomás neve.

Azután kattintson az időjárási megfigyelések és előrejelzések megtekintéséhez.

A térkép megváltoztatása: kattintson a fekete keresztel jelölt zöld gombra ráközelítéshez, a vonallal jelölt zöld gombra távolításhoz, vagy a zöld nyilakra a szomszédos térképek eléréséhez.


METAR-TAF: